sensor_id;sensor_type;location;lat;lon;timestamp;P1;durP1;ratioP1;P2;durP2;ratioP2
33810;SDS011;20119;48.334;16.206;2023-11-19T00:01:01;43.08;;;30.75;;
33810;SDS011;20119;48.334;16.206;2023-11-19T00:03:31;41.58;;;30.60;;
33810;SDS011;20119;48.334;16.206;2023-11-19T00:06:00;40.97;;;31.45;;
33810;SDS011;20119;48.334;16.206;2023-11-19T00:08:29;43.35;;;32.25;;
33810;SDS011;20119;48.334;16.206;2023-11-19T00:10:58;42.67;;;31.92;;
33810;SDS011;20119;48.334;16.206;2023-11-19T00:13:27;41.75;;;31.13;;
33810;SDS011;20119;48.334;16.206;2023-11-19T00:15:57;46.17;;;32.03;;
33810;SDS011;20119;48.334;16.206;2023-11-19T00:18:29;40.50;;;31.10;;
33810;SDS011;20119;48.334;16.206;2023-11-19T00:20:58;40.08;;;30.90;;
33810;SDS011;20119;48.334;16.206;2023-11-19T00:23:27;41.53;;;31.30;;
33810;SDS011;20119;48.334;16.206;2023-11-19T00:25:56;45.30;;;31.45;;
33810;SDS011;20119;48.334;16.206;2023-11-19T00:28:29;39.42;;;28.73;;
33810;SDS011;20119;48.334;16.206;2023-11-19T00:30:58;39.45;;;30.80;;
33810;SDS011;20119;48.334;16.206;2023-11-19T00:33:31;39.88;;;29.95;;
33810;SDS011;20119;48.334;16.206;2023-11-19T00:36:03;40.53;;;30.67;;
33810;SDS011;20119;48.334;16.206;2023-11-19T00:38:30;44.03;;;32.35;;
33810;SDS011;20119;48.334;16.206;2023-11-19T00:40:58;39.28;;;30.13;;
33810;SDS011;20119;48.334;16.206;2023-11-19T00:43:29;39.80;;;30.48;;
33810;SDS011;20119;48.334;16.206;2023-11-19T00:45:56;42.88;;;31.77;;
33810;SDS011;20119;48.334;16.206;2023-11-19T00:48:24;44.08;;;31.55;;
33810;SDS011;20119;48.334;16.206;2023-11-19T00:50:54;39.05;;;29.45;;
33810;SDS011;20119;48.334;16.206;2023-11-19T00:53:22;43.80;;;31.52;;
33810;SDS011;20119;48.334;16.206;2023-11-19T00:55:51;40.63;;;29.95;;
33810;SDS011;20119;48.334;16.206;2023-11-19T00:58:19;39.17;;;28.60;;
33810;SDS011;20119;48.334;16.206;2023-11-19T01:00:48;38.65;;;29.45;;
33810;SDS011;20119;48.334;16.206;2023-11-19T01:03:18;37.40;;;29.27;;
33810;SDS011;20119;48.334;16.206;2023-11-19T01:08:30;27.47;;;19.40;;
33810;SDS011;20119;48.334;16.206;2023-11-19T01:11:02;33.15;;;24.55;;
33810;SDS011;20119;48.334;16.206;2023-11-19T01:13:36;31.02;;;24.15;;
33810;SDS011;20119;48.334;16.206;2023-11-19T01:16:25;30.23;;;23.17;;
33810;SDS011;20119;48.334;16.206;2023-11-19T01:18:59;27.42;;;21.38;;
33810;SDS011;20119;48.334;16.206;2023-11-19T01:21:39;27.52;;;20.63;;
33810;SDS011;20119;48.334;16.206;2023-11-19T01:24:21;25.92;;;20.48;;
33810;SDS011;20119;48.334;16.206;2023-11-19T01:27:00;28.05;;;20.63;;
33810;SDS011;20119;48.334;16.206;2023-11-19T01:29:33;26.58;;;21.58;;
33810;SDS011;20119;48.334;16.206;2023-11-19T01:32:10;27.30;;;22.52;;
33810;SDS011;20119;48.334;16.206;2023-11-19T01:34:41;27.55;;;21.67;;
33810;SDS011;20119;48.334;16.206;2023-11-19T01:37:10;25.83;;;20.30;;
33810;SDS011;20119;48.334;16.206;2023-11-19T01:39:46;24.98;;;21.33;;
33810;SDS011;20119;48.334;16.206;2023-11-19T01:42:18;26.80;;;21.25;;
33810;SDS011;20119;48.334;16.206;2023-11-19T01:44:58;26.92;;;21.15;;
33810;SDS011;20119;48.334;16.206;2023-11-19T01:47:28;25.35;;;21.02;;
33810;SDS011;20119;48.334;16.206;2023-11-19T01:49:57;27.05;;;20.98;;
33810;SDS011;20119;48.334;16.206;2023-11-19T01:52:25;25.55;;;21.30;;
33810;SDS011;20119;48.334;16.206;2023-11-19T01:54:55;25.48;;;21.10;;
33810;SDS011;20119;48.334;16.206;2023-11-19T01:57:23;26.63;;;21.35;;
33810;SDS011;20119;48.334;16.206;2023-11-19T01:59:53;26.55;;;21.40;;
33810;SDS011;20119;48.334;16.206;2023-11-19T02:02:23;27.08;;;22.50;;
33810;SDS011;20119;48.334;16.206;2023-11-19T02:04:54;26.60;;;21.83;;
33810;SDS011;20119;48.334;16.206;2023-11-19T02:07:27;28.73;;;21.23;;
33810;SDS011;20119;48.334;16.206;2023-11-19T02:10:05;26.13;;;21.30;;
33810;SDS011;20119;48.334;16.206;2023-11-19T02:12:38;27.90;;;21.50;;
33810;SDS011;20119;48.334;16.206;2023-11-19T02:15:09;28.60;;;21.38;;
33810;SDS011;20119;48.334;16.206;2023-11-19T02:17:45;24.10;;;20.63;;
33810;SDS011;20119;48.334;16.206;2023-11-19T02:22:51;26.90;;;20.90;;
33810;SDS011;20119;48.334;16.206;2023-11-19T02:25:31;25.85;;;21.80;;
33810;SDS011;20119;48.334;16.206;2023-11-19T02:28:08;29.63;;;21.77;;
33810;SDS011;20119;48.334;16.206;2023-11-19T02:30:47;27.52;;;21.25;;
33810;SDS011;20119;48.334;16.206;2023-11-19T02:33:18;29.48;;;23.27;;
33810;SDS011;20119;48.334;16.206;2023-11-19T02:41:09;27.52;;;22.73;;
33810;SDS011;20119;48.334;16.206;2023-11-19T02:43:51;28.92;;;23.15;;
33810;SDS011;20119;48.334;16.206;2023-11-19T02:46:28;29.40;;;24.27;;
33810;SDS011;20119;48.334;16.206;2023-11-19T02:49:03;29.27;;;23.80;;
33810;SDS011;20119;48.334;16.206;2023-11-19T02:51:38;31.02;;;24.90;;
33810;SDS011;20119;48.334;16.206;2023-11-19T02:56:45;30.65;;;24.13;;
33810;SDS011;20119;48.334;16.206;2023-11-19T03:04:48;31.08;;;25.90;;
33810;SDS011;20119;48.334;16.206;2023-11-19T03:10:14;33.95;;;27.05;;
33810;SDS011;20119;48.334;16.206;2023-11-19T03:12:55;34.35;;;27.23;;
33810;SDS011;20119;48.334;16.206;2023-11-19T03:15:45;34.60;;;26.75;;
33810;SDS011;20119;48.334;16.206;2023-11-19T03:18:20;33.75;;;26.02;;
33810;SDS011;20119;48.334;16.206;2023-11-19T03:21:06;29.63;;;25.08;;
33810;SDS011;20119;48.334;16.206;2023-11-19T03:23:39;30.88;;;26.27;;
33810;SDS011;20119;48.334;16.206;2023-11-19T03:26:13;36.70;;;27.55;;
33810;SDS011;20119;48.334;16.206;2023-11-19T03:28:47;29.98;;;24.65;;
33810;SDS011;20119;48.334;16.206;2023-11-19T03:31:18;28.88;;;23.52;;
33810;SDS011;20119;48.334;16.206;2023-11-19T03:33:45;22.65;;;19.25;;
33810;SDS011;20119;48.334;16.206;2023-11-19T03:36:15;27.30;;;21.35;;
33810;SDS011;20119;48.334;16.206;2023-11-19T03:38:43;27.58;;;21.63;;
33810;SDS011;20119;48.334;16.206;2023-11-19T03:41:12;25.55;;;21.88;;
33810;SDS011;20119;48.334;16.206;2023-11-19T03:43:40;21.40;;;17.80;;
33810;SDS011;20119;48.334;16.206;2023-11-19T03:46:16;21.00;;;18.25;;
33810;SDS011;20119;48.334;16.206;2023-11-19T03:48:46;21.95;;;17.13;;
33810;SDS011;20119;48.334;16.206;2023-11-19T03:51:37;16.98;;;14.43;;
33810;SDS011;20119;48.334;16.206;2023-11-19T03:54:10;17.60;;;15.10;;
33810;SDS011;20119;48.334;16.206;2023-11-19T03:56:45;17.00;;;14.10;;
33810;SDS011;20119;48.334;16.206;2023-11-19T03:59:18;17.02;;;14.02;;
33810;SDS011;20119;48.334;16.206;2023-11-19T04:01:47;17.73;;;13.73;;
33810;SDS011;20119;48.334;16.206;2023-11-19T04:04:16;15.93;;;13.70;;
33810;SDS011;20119;48.334;16.206;2023-11-19T04:06:48;15.97;;;14.23;;
33810;SDS011;20119;48.334;16.206;2023-11-19T04:09:16;15.38;;;13.60;;
33810;SDS011;20119;48.334;16.206;2023-11-19T04:11:43;14.05;;;12.52;;
33810;SDS011;20119;48.334;16.206;2023-11-19T04:14:12;15.40;;;13.50;;
33810;SDS011;20119;48.334;16.206;2023-11-19T04:16:40;14.60;;;12.90;;
33810;SDS011;20119;48.334;16.206;2023-11-19T04:19:07;13.70;;;11.93;;
33810;SDS011;20119;48.334;16.206;2023-11-19T04:21:35;14.75;;;13.25;;
33810;SDS011;20119;48.334;16.206;2023-11-19T04:24:04;14.60;;;12.75;;
33810;SDS011;20119;48.334;16.206;2023-11-19T04:26:31;13.48;;;11.63;;
33810;SDS011;20119;48.334;16.206;2023-11-19T04:28:59;14.82;;;11.80;;
33810;SDS011;20119;48.334;16.206;2023-11-19T04:31:28;13.35;;;11.38;;
33810;SDS011;20119;48.334;16.206;2023-11-19T04:33:59;13.57;;;11.45;;
33810;SDS011;20119;48.334;16.206;2023-11-19T04:36:26;11.75;;;10.55;;
33810;SDS011;20119;48.334;16.206;2023-11-19T04:38:54;13.25;;;11.70;;
33810;SDS011;20119;48.334;16.206;2023-11-19T04:41:23;13.05;;;11.60;;
33810;SDS011;20119;48.334;16.206;2023-11-19T04:43:52;12.57;;;11.27;;
33810;SDS011;20119;48.334;16.206;2023-11-19T04:46:20;12.88;;;10.95;;
33810;SDS011;20119;48.334;16.206;2023-11-19T04:48:48;12.88;;;11.48;;
33810;SDS011;20119;48.334;16.206;2023-11-19T04:51:16;13.18;;;10.60;;
33810;SDS011;20119;48.334;16.206;2023-11-19T04:53:44;15.38;;;11.05;;
33810;SDS011;20119;48.334;16.206;2023-11-19T04:56:12;12.05;;;10.40;;
33810;SDS011;20119;48.334;16.206;2023-11-19T05:01:19;12.88;;;10.90;;
33810;SDS011;20119;48.334;16.206;2023-11-19T05:03:47;12.47;;;11.17;;
33810;SDS011;20119;48.334;16.206;2023-11-19T05:06:18;14.13;;;11.77;;
33810;SDS011;20119;48.334;16.206;2023-11-19T05:08:58;13.60;;;11.80;;
33810;SDS011;20119;48.334;16.206;2023-11-19T05:11:36;15.23;;;13.00;;
33810;SDS011;20119;48.334;16.206;2023-11-19T05:14:08;14.43;;;12.80;;
33810;SDS011;20119;48.334;16.206;2023-11-19T05:17:04;17.98;;;13.82;;
33810;SDS011;20119;48.334;16.206;2023-11-19T05:19:52;16.40;;;13.45;;
33810;SDS011;20119;48.334;16.206;2023-11-19T05:22:23;15.48;;;13.68;;
33810;SDS011;20119;48.334;16.206;2023-11-19T05:24:56;16.50;;;14.27;;
33810;SDS011;20119;48.334;16.206;2023-11-19T05:27:28;16.45;;;13.48;;
33810;SDS011;20119;48.334;16.206;2023-11-19T05:30:01;13.00;;;11.10;;
33810;SDS011;20119;48.334;16.206;2023-11-19T05:37:57;15.88;;;13.07;;
33810;SDS011;20119;48.334;16.206;2023-11-19T05:40:34;14.73;;;12.85;;
33810;SDS011;20119;48.334;16.206;2023-11-19T05:43:05;16.30;;;13.43;;
33810;SDS011;20119;48.334;16.206;2023-11-19T05:45:47;15.45;;;13.50;;
33810;SDS011;20119;48.334;16.206;2023-11-19T05:48:27;16.23;;;12.95;;
33810;SDS011;20119;48.334;16.206;2023-11-19T05:51:00;15.45;;;12.23;;
33810;SDS011;20119;48.334;16.206;2023-11-19T05:53:38;15.15;;;12.80;;
33810;SDS011;20119;48.334;16.206;2023-11-19T05:56:14;15.25;;;13.30;;
33810;SDS011;20119;48.334;16.206;2023-11-19T05:58:48;14.13;;;12.45;;
33810;SDS011;20119;48.334;16.206;2023-11-19T06:01:20;17.48;;;13.15;;
33810;SDS011;20119;48.334;16.206;2023-11-19T06:03:50;17.05;;;13.10;;
33810;SDS011;20119;48.334;16.206;2023-11-19T06:06:22;17.35;;;13.52;;
33810;SDS011;20119;48.334;16.206;2023-11-19T06:09:02;14.02;;;12.52;;
33810;SDS011;20119;48.334;16.206;2023-11-19T06:11:34;15.20;;;13.15;;
33810;SDS011;20119;48.334;16.206;2023-11-19T06:14:20;15.45;;;13.10;;
33810;SDS011;20119;48.334;16.206;2023-11-19T06:17:02;13.57;;;11.73;;
33810;SDS011;20119;48.334;16.206;2023-11-19T06:19:30;15.20;;;12.70;;
33810;SDS011;20119;48.334;16.206;2023-11-19T06:22:02;15.88;;;13.48;;
33810;SDS011;20119;48.334;16.206;2023-11-19T06:24:34;14.75;;;12.55;;
33810;SDS011;20119;48.334;16.206;2023-11-19T06:27:07;15.18;;;12.55;;
33810;SDS011;20119;48.334;16.206;2023-11-19T06:29:35;16.25;;;13.60;;
33810;SDS011;20119;48.334;16.206;2023-11-19T06:32:09;16.23;;;13.32;;
33810;SDS011;20119;48.334;16.206;2023-11-19T06:34:41;17.23;;;14.07;;
33810;SDS011;20119;48.334;16.206;2023-11-19T06:37:12;17.52;;;14.88;;
33810;SDS011;20119;48.334;16.206;2023-11-19T06:39:53;17.60;;;15.07;;
33810;SDS011;20119;48.334;16.206;2023-11-19T06:42:23;16.88;;;14.68;;
33810;SDS011;20119;48.334;16.206;2023-11-19T06:44:51;21.33;;;16.45;;
33810;SDS011;20119;48.334;16.206;2023-11-19T06:47:18;23.30;;;18.50;;
33810;SDS011;20119;48.334;16.206;2023-11-19T06:49:48;26.27;;;18.92;;
33810;SDS011;20119;48.334;16.206;2023-11-19T06:52:20;26.33;;;20.25;;
33810;SDS011;20119;48.334;16.206;2023-11-19T06:54:49;28.60;;;21.73;;
33810;SDS011;20119;48.334;16.206;2023-11-19T06:57:16;26.75;;;21.52;;
33810;SDS011;20119;48.334;16.206;2023-11-19T06:59:45;29.92;;;22.63;;
33810;SDS011;20119;48.334;16.206;2023-11-19T07:02:13;30.70;;;22.00;;
33810;SDS011;20119;48.334;16.206;2023-11-19T07:04:40;31.38;;;24.00;;
33810;SDS011;20119;48.334;16.206;2023-11-19T07:07:08;28.83;;;22.73;;
33810;SDS011;20119;48.334;16.206;2023-11-19T07:09:35;28.65;;;22.75;;
33810;SDS011;20119;48.334;16.206;2023-11-19T07:12:07;30.45;;;23.38;;
33810;SDS011;20119;48.334;16.206;2023-11-19T07:14:34;27.65;;;22.50;;
33810;SDS011;20119;48.334;16.206;2023-11-19T07:17:01;27.15;;;22.58;;
33810;SDS011;20119;48.334;16.206;2023-11-19T07:19:29;28.15;;;21.55;;
33810;SDS011;20119;48.334;16.206;2023-11-19T07:21:57;26.73;;;21.92;;
33810;SDS011;20119;48.334;16.206;2023-11-19T07:24:26;28.80;;;22.07;;
33810;SDS011;20119;48.334;16.206;2023-11-19T07:26:54;28.30;;;22.05;;
33810;SDS011;20119;48.334;16.206;2023-11-19T07:29:23;26.23;;;20.75;;
33810;SDS011;20119;48.334;16.206;2023-11-19T07:31:51;24.83;;;19.27;;
33810;SDS011;20119;48.334;16.206;2023-11-19T07:34:19;23.15;;;18.85;;
33810;SDS011;20119;48.334;16.206;2023-11-19T07:36:47;22.73;;;18.23;;
33810;SDS011;20119;48.334;16.206;2023-11-19T07:39:15;24.83;;;20.88;;
33810;SDS011;20119;48.334;16.206;2023-11-19T07:44:14;24.13;;;18.45;;
33810;SDS011;20119;48.334;16.206;2023-11-19T07:46:45;22.20;;;18.83;;
33810;SDS011;20119;48.334;16.206;2023-11-19T07:51:41;22.60;;;17.20;;
33810;SDS011;20119;48.334;16.206;2023-11-19T07:54:09;18.85;;;15.98;;
33810;SDS011;20119;48.334;16.206;2023-11-19T07:56:39;21.25;;;17.85;;
33810;SDS011;20119;48.334;16.206;2023-11-19T07:59:08;18.67;;;15.98;;
33810;SDS011;20119;48.334;16.206;2023-11-19T08:01:41;16.92;;;15.13;;
33810;SDS011;20119;48.334;16.206;2023-11-19T08:04:13;17.70;;;14.88;;
33810;SDS011;20119;48.334;16.206;2023-11-19T08:06:42;16.13;;;14.15;;
33810;SDS011;20119;48.334;16.206;2023-11-19T08:09:16;21.35;;;18.85;;
33810;SDS011;20119;48.334;16.206;2023-11-19T08:11:46;21.10;;;18.15;;
33810;SDS011;20119;48.334;16.206;2023-11-19T08:14:16;17.98;;;15.73;;
33810;SDS011;20119;48.334;16.206;2023-11-19T08:16:50;18.50;;;14.38;;
33810;SDS011;20119;48.334;16.206;2023-11-19T08:19:24;15.18;;;13.02;;
33810;SDS011;20119;48.334;16.206;2023-11-19T08:21:55;12.95;;;11.60;;
33810;SDS011;20119;48.334;16.206;2023-11-19T08:24:28;13.15;;;11.63;;
33810;SDS011;20119;48.334;16.206;2023-11-19T08:27:08;14.30;;;12.15;;
33810;SDS011;20119;48.334;16.206;2023-11-19T08:29:39;13.35;;;11.48;;
33810;SDS011;20119;48.334;16.206;2023-11-19T08:32:13;12.18;;;10.88;;
33810;SDS011;20119;48.334;16.206;2023-11-19T08:34:47;11.98;;;10.50;;
33810;SDS011;20119;48.334;16.206;2023-11-19T08:37:19;11.40;;;10.30;;
33810;SDS011;20119;48.334;16.206;2023-11-19T08:39:53;11.52;;;10.32;;
33810;SDS011;20119;48.334;16.206;2023-11-19T08:44:55;15.80;;;13.70;;
33810;SDS011;20119;48.334;16.206;2023-11-19T08:47:27;14.98;;;12.85;;
33810;SDS011;20119;48.334;16.206;2023-11-19T08:50:04;15.43;;;13.57;;
33810;SDS011;20119;48.334;16.206;2023-11-19T08:52:36;14.70;;;12.45;;
33810;SDS011;20119;48.334;16.206;2023-11-19T08:55:06;15.63;;;14.02;;
33810;SDS011;20119;48.334;16.206;2023-11-19T08:57:39;13.07;;;11.68;;
33810;SDS011;20119;48.334;16.206;2023-11-19T09:00:11;21.05;;;18.95;;
33810;SDS011;20119;48.334;16.206;2023-11-19T09:02:48;43.45;;;38.83;;
33810;SDS011;20119;48.334;16.206;2023-11-19T09:05:23;13.85;;;12.43;;
33810;SDS011;20119;48.334;16.206;2023-11-19T09:07:55;13.30;;;11.32;;
33810;SDS011;20119;48.334;16.206;2023-11-19T09:10:25;12.48;;;10.73;;
33810;SDS011;20119;48.334;16.206;2023-11-19T09:12:57;11.80;;;10.68;;
33810;SDS011;20119;48.334;16.206;2023-11-19T09:15:33;12.18;;;10.93;;
33810;SDS011;20119;48.334;16.206;2023-11-19T09:18:10;14.73;;;13.20;;
33810;SDS011;20119;48.334;16.206;2023-11-19T09:20:48;16.38;;;14.65;;
33810;SDS011;20119;48.334;16.206;2023-11-19T09:23:23;15.35;;;13.75;;
33810;SDS011;20119;48.334;16.206;2023-11-19T09:26:04;16.50;;;14.80;;
33810;SDS011;20119;48.334;16.206;2023-11-19T09:28:40;15.20;;;13.60;;
33810;SDS011;20119;48.334;16.206;2023-11-19T09:31:16;17.10;;;15.35;;
33810;SDS011;20119;48.334;16.206;2023-11-19T09:33:53;13.52;;;12.13;;
33810;SDS011;20119;48.334;16.206;2023-11-19T09:36:33;17.60;;;15.70;;
33810;SDS011;20119;48.334;16.206;2023-11-19T09:41:42;16.65;;;14.27;;
33810;SDS011;20119;48.334;16.206;2023-11-19T09:44:15;16.40;;;14.65;;
33810;SDS011;20119;48.334;16.206;2023-11-19T09:46:49;10.65;;;9.45;;
33810;SDS011;20119;48.334;16.206;2023-11-19T09:49:24;12.20;;;11.00;;
33810;SDS011;20119;48.334;16.206;2023-11-19T09:52:11;11.02;;;9.95;;
33810;SDS011;20119;48.334;16.206;2023-11-19T09:57:17;9.18;;;8.27;;
33810;SDS011;20119;48.334;16.206;2023-11-19T09:59:48;8.95;;;7.70;;
33810;SDS011;20119;48.334;16.206;2023-11-19T10:12:47;7.13;;;6.32;;
33810;SDS011;20119;48.334;16.206;2023-11-19T10:15:24;7.93;;;6.43;;
33810;SDS011;20119;48.334;16.206;2023-11-19T10:20:37;7.82;;;7.13;;
33810;SDS011;20119;48.334;16.206;2023-11-19T10:23:07;8.75;;;7.85;;
33810;SDS011;20119;48.334;16.206;2023-11-19T10:25:39;8.95;;;7.75;;
33810;SDS011;20119;48.334;16.206;2023-11-19T10:30:59;8.27;;;7.47;;
33810;SDS011;20119;48.334;16.206;2023-11-19T10:33:32;9.13;;;8.20;;
33810;SDS011;20119;48.334;16.206;2023-11-19T10:36:23;9.23;;;8.32;;
33810;SDS011;20119;48.334;16.206;2023-11-19T10:39:09;9.90;;;8.05;;
33810;SDS011;20119;48.334;16.206;2023-11-19T10:41:42;8.52;;;7.72;;
33810;SDS011;20119;48.334;16.206;2023-11-19T10:44:36;9.02;;;8.13;;
33810;SDS011;20119;48.334;16.206;2023-11-19T10:52:36;9.50;;;7.68;;
33810;SDS011;20119;48.334;16.206;2023-11-19T10:55:18;8.70;;;7.80;;
33810;SDS011;20119;48.334;16.206;2023-11-19T11:52:28;15.15;;;13.55;;
33810;SDS011;20119;48.334;16.206;2023-11-19T11:55:03;14.60;;;13.10;;
33810;SDS011;20119;48.334;16.206;2023-11-19T11:57:45;15.68;;;14.07;;
33810;SDS011;20119;48.334;16.206;2023-11-19T12:03:10;15.23;;;13.63;;
33810;SDS011;20119;48.334;16.206;2023-11-19T12:05:59;17.00;;;14.77;;
33810;SDS011;20119;48.334;16.206;2023-11-19T12:08:46;16.20;;;14.50;;
33810;SDS011;20119;48.334;16.206;2023-11-19T12:11:28;14.77;;;13.07;;
33810;SDS011;20119;48.334;16.206;2023-11-19T12:19:24;16.23;;;13.75;;
33810;SDS011;20119;48.334;16.206;2023-11-19T12:35:05;16.92;;;15.13;;
33810;SDS011;20119;48.334;16.206;2023-11-19T12:37:48;17.17;;;15.40;;
33810;SDS011;20119;48.334;16.206;2023-11-19T12:40:24;18.50;;;16.50;;
33810;SDS011;20119;48.334;16.206;2023-11-19T12:45:42;17.75;;;15.98;;
33810;SDS011;20119;48.334;16.206;2023-11-19T12:48:14;18.58;;;16.67;;
33810;SDS011;20119;48.334;16.206;2023-11-19T12:50:53;18.85;;;16.85;;
33810;SDS011;20119;48.334;16.206;2023-11-19T12:53:25;22.08;;;18.67;;
33810;SDS011;20119;48.334;16.206;2023-11-19T12:55:59;20.00;;;17.95;;
33810;SDS011;20119;48.334;16.206;2023-11-19T12:58:40;21.20;;;19.00;;
33810;SDS011;20119;48.334;16.206;2023-11-19T13:01:15;47.80;;;35.13;;
33810;SDS011;20119;48.334;16.206;2023-11-19T13:03:45;41.95;;;31.67;;
33810;SDS011;20119;48.334;16.206;2023-11-19T13:06:30;29.00;;;24.17;;
33810;SDS011;20119;48.334;16.206;2023-11-19T13:09:08;27.73;;;24.73;;
33810;SDS011;20119;48.334;16.206;2023-11-19T13:11:45;35.38;;;30.17;;
33810;SDS011;20119;48.334;16.206;2023-11-19T13:14:18;31.30;;;26.38;;
33810;SDS011;20119;48.334;16.206;2023-11-19T13:16:57;27.20;;;23.70;;
33810;SDS011;20119;48.334;16.206;2023-11-19T13:19:33;40.17;;;29.90;;
33810;SDS011;20119;48.334;16.206;2023-11-19T13:22:15;39.85;;;31.10;;
33810;SDS011;20119;48.334;16.206;2023-11-19T13:24:51;33.28;;;27.08;;
33810;SDS011;20119;48.334;16.206;2023-11-19T13:27:31;29.75;;;25.20;;
33810;SDS011;20119;48.334;16.206;2023-11-19T13:30:07;28.30;;;25.30;;
33810;SDS011;20119;48.334;16.206;2023-11-19T13:32:43;29.02;;;25.92;;
33810;SDS011;20119;48.334;16.206;2023-11-19T13:35:18;28.20;;;25.15;;
33810;SDS011;20119;48.334;16.206;2023-11-19T13:38:05;28.63;;;25.45;;
33810;SDS011;20119;48.334;16.206;2023-11-19T13:40:39;26.35;;;23.50;;
33810;SDS011;20119;48.334;16.206;2023-11-19T13:45:46;27.85;;;24.48;;
33810;SDS011;20119;48.334;16.206;2023-11-19T13:48:30;28.23;;;24.92;;
33810;SDS011;20119;48.334;16.206;2023-11-19T13:51:04;37.58;;;32.80;;
33810;SDS011;20119;48.334;16.206;2023-11-19T13:53:46;34.50;;;29.13;;
33810;SDS011;20119;48.334;16.206;2023-11-19T14:04:11;25.25;;;22.52;;
33810;SDS011;20119;48.334;16.206;2023-11-19T14:06:43;30.23;;;25.63;;
33810;SDS011;20119;48.334;16.206;2023-11-19T14:14:42;34.97;;;29.52;;
33810;SDS011;20119;48.334;16.206;2023-11-19T14:17:27;33.33;;;27.13;;
33810;SDS011;20119;48.334;16.206;2023-11-19T14:20:13;24.92;;;20.95;;
33810;SDS011;20119;48.334;16.206;2023-11-19T14:22:57;23.65;;;21.23;;
33810;SDS011;20119;48.334;16.206;2023-11-19T14:25:37;25.08;;;21.90;;
33810;SDS011;20119;48.334;16.206;2023-11-19T14:28:10;23.17;;;20.40;;
33810;SDS011;20119;48.334;16.206;2023-11-19T14:33:32;23.33;;;20.10;;
33810;SDS011;20119;48.334;16.206;2023-11-19T14:44:03;33.70;;;28.30;;
33810;SDS011;20119;48.334;16.206;2023-11-19T14:49:24;34.85;;;28.05;;
33810;SDS011;20119;48.334;16.206;2023-11-19T15:02:42;20.95;;;18.70;;
33810;SDS011;20119;48.334;16.206;2023-11-19T15:08:06;20.85;;;18.23;;
33810;SDS011;20119;48.334;16.206;2023-11-19T15:18:42;41.10;;;33.42;;
33810;SDS011;20119;48.334;16.206;2023-11-19T15:42:53;67.65;;;46.60;;
33810;SDS011;20119;48.334;16.206;2023-11-19T15:58:49;47.60;;;34.92;;
33810;SDS011;20119;48.334;16.206;2023-11-19T16:01:21;42.20;;;32.63;;
33810;SDS011;20119;48.334;16.206;2023-11-19T16:04:01;52.88;;;37.83;;
33810;SDS011;20119;48.334;16.206;2023-11-19T16:06:31;45.85;;;36.38;;
33810;SDS011;20119;48.334;16.206;2023-11-19T16:22:34;74.57;;;50.30;;
33810;SDS011;20119;48.334;16.206;2023-11-19T16:25:10;44.58;;;35.13;;
33810;SDS011;20119;48.334;16.206;2023-11-19T16:27:47;42.08;;;32.45;;
33810;SDS011;20119;48.334;16.206;2023-11-19T16:30:26;44.35;;;33.83;;
33810;SDS011;20119;48.334;16.206;2023-11-19T16:33:01;41.85;;;32.95;;
33810;SDS011;20119;48.334;16.206;2023-11-19T16:35:41;42.65;;;33.33;;
33810;SDS011;20119;48.334;16.206;2023-11-19T16:38:16;41.00;;;32.38;;
33810;SDS011;20119;48.334;16.206;2023-11-19T16:43:31;46.28;;;36.35;;
33810;SDS011;20119;48.334;16.206;2023-11-19T16:48:47;54.70;;;40.17;;
33810;SDS011;20119;48.334;16.206;2023-11-19T16:51:25;47.67;;;36.58;;
33810;SDS011;20119;48.334;16.206;2023-11-19T16:54:10;42.53;;;34.88;;
33810;SDS011;20119;48.334;16.206;2023-11-19T16:59:29;44.25;;;35.88;;
33810;SDS011;20119;48.334;16.206;2023-11-19T17:02:10;48.28;;;37.40;;
33810;SDS011;20119;48.334;16.206;2023-11-19T17:07:21;50.70;;;38.47;;
33810;SDS011;20119;48.334;16.206;2023-11-19T17:10:00;46.35;;;37.05;;
33810;SDS011;20119;48.334;16.206;2023-11-19T17:17:58;55.03;;;41.05;;
33810;SDS011;20119;48.334;16.206;2023-11-19T17:20:29;60.90;;;46.77;;
33810;SDS011;20119;48.334;16.206;2023-11-19T17:23:03;60.08;;;45.42;;
33810;SDS011;20119;48.334;16.206;2023-11-19T17:25:48;60.75;;;46.63;;
33810;SDS011;20119;48.334;16.206;2023-11-19T17:28:18;69.20;;;50.22;;
33810;SDS011;20119;48.334;16.206;2023-11-19T17:30:52;64.15;;;49.45;;
33810;SDS011;20119;48.334;16.206;2023-11-19T17:36:09;58.63;;;44.67;;
33810;SDS011;20119;48.334;16.206;2023-11-19T17:41:31;59.70;;;44.72;;
33810;SDS011;20119;48.334;16.206;2023-11-19T17:44:18;61.75;;;46.58;;
33810;SDS011;20119;48.334;16.206;2023-11-19T17:46:50;66.38;;;49.40;;
33810;SDS011;20119;48.334;16.206;2023-11-19T17:49:20;69.82;;;52.10;;
33810;SDS011;20119;48.334;16.206;2023-11-19T17:51:55;68.47;;;50.20;;
33810;SDS011;20119;48.334;16.206;2023-11-19T18:02:30;64.72;;;46.20;;
33810;SDS011;20119;48.334;16.206;2023-11-19T18:05:07;80.10;;;54.92;;
33810;SDS011;20119;48.334;16.206;2023-11-19T18:07:39;80.05;;;57.90;;
33810;SDS011;20119;48.334;16.206;2023-11-19T18:10:15;77.57;;;55.25;;
33810;SDS011;20119;48.334;16.206;2023-11-19T18:12:47;76.40;;;54.63;;
33810;SDS011;20119;48.334;16.206;2023-11-19T18:20:42;77.65;;;55.33;;
33810;SDS011;20119;48.334;16.206;2023-11-19T18:23:21;91.68;;;62.53;;
33810;SDS011;20119;48.334;16.206;2023-11-19T18:26:03;103.78;;;65.00;;
33810;SDS011;20119;48.334;16.206;2023-11-19T18:28:39;88.40;;;62.30;;
33810;SDS011;20119;48.334;16.206;2023-11-19T18:31:22;82.07;;;56.47;;
33810;SDS011;20119;48.334;16.206;2023-11-19T18:33:53;78.35;;;52.65;;
33810;SDS011;20119;48.334;16.206;2023-11-19T18:36:36;78.70;;;52.30;;
33810;SDS011;20119;48.334;16.206;2023-11-19T18:39:10;75.13;;;53.10;;
33810;SDS011;20119;48.334;16.206;2023-11-19T18:44:17;82.10;;;55.25;;
33810;SDS011;20119;48.334;16.206;2023-11-19T18:46:48;81.95;;;56.47;;
33810;SDS011;20119;48.334;16.206;2023-11-19T18:52:10;78.68;;;52.40;;
33810;SDS011;20119;48.334;16.206;2023-11-19T18:57:32;78.22;;;52.78;;
33810;SDS011;20119;48.334;16.206;2023-11-19T19:00:14;75.07;;;52.25;;
33810;SDS011;20119;48.334;16.206;2023-11-19T19:02:52;78.18;;;52.00;;
33810;SDS011;20119;48.334;16.206;2023-11-19T19:05:38;81.10;;;54.58;;
33810;SDS011;20119;48.334;16.206;2023-11-19T19:08:18;78.78;;;53.22;;
33810;SDS011;20119;48.334;16.206;2023-11-19T19:10:50;76.93;;;53.20;;
33810;SDS011;20119;48.334;16.206;2023-11-19T19:13:23;80.38;;;54.05;;
33810;SDS011;20119;48.334;16.206;2023-11-19T19:16:08;86.57;;;54.72;;
33810;SDS011;20119;48.334;16.206;2023-11-19T19:18:39;87.80;;;61.90;;
33810;SDS011;20119;48.334;16.206;2023-11-19T19:21:18;84.53;;;52.63;;
33810;SDS011;20119;48.334;16.206;2023-11-19T19:24:01;80.90;;;51.53;;
33810;SDS011;20119;48.334;16.206;2023-11-19T19:26:45;72.68;;;48.63;;
33810;SDS011;20119;48.334;16.206;2023-11-19T19:29:21;78.95;;;50.60;;
33810;SDS011;20119;48.334;16.206;2023-11-19T19:37:08;81.70;;;56.17;;
33810;SDS011;20119;48.334;16.206;2023-11-19T19:39:49;85.55;;;58.95;;